MBW weather

Melbourne Moorabbin Airport
Melbourne, Victoria, Australia

Public forecast

Using degrees Celsius for public forecast. Weather courtesy of forecast.io.

METAR (pilot weather report)

Closest report is Melbourne Essendon Airport, 17.6 nm (32.7 km) NNW. Retrieved 2019/02/18 17:00 UTC (39 seconds ago):

YMEN 181700Z AUTO 25007KT 9999 // OVC053 13/08 Q1010

TAF (pilot weather forecast)

Closest forecast is Melbourne International Airport, 21.9 nm (40.6 km) NW. Retrieved 2019/02/18 12:00 UTC (5 hours ago):

TAF COR YMML 181106Z 1812/1918 21010KT 9999 SCT045 FM181800 24008KT 9999 FEW035 FM182300 20014KT 9999 SCT040 FM190400 17015KT 9999 SCT040 FM191000 18008KT 9999 SCT035 FM191500 24008KT 9999 FEW030